createdAt,value
2023-04-18T00:00:37.988Z,6.80
2023-04-18T00:03:07.105Z,6.80
2023-04-18T00:05:38.057Z,6.80
2023-04-18T00:08:06.469Z,6.80
2023-04-18T00:10:34.890Z,6.80
2023-04-18T00:13:04.070Z,6.70
2023-04-18T00:15:34.453Z,6.70
2023-04-18T00:18:05.940Z,6.70
2023-04-18T00:20:38.963Z,6.70
2023-04-18T00:23:07.838Z,6.70
2023-04-18T00:25:36.277Z,6.70
2023-04-18T00:28:04.968Z,6.70
2023-04-18T00:30:33.676Z,6.70
2023-04-18T00:33:04.255Z,6.60
2023-04-18T00:35:33.064Z,6.60
2023-04-18T00:38:03.158Z,6.60
2023-04-18T00:40:32.342Z,6.60
2023-04-18T00:43:01.241Z,6.60
2023-04-18T00:45:30.040Z,6.60
2023-04-18T00:47:58.652Z,6.60
2023-04-18T00:50:27.911Z,6.50
2023-04-18T00:52:59.388Z,6.60
2023-04-18T00:55:30.692Z,6.60
2023-04-18T00:57:59.186Z,6.50
2023-04-18T01:00:28.073Z,6.50
2023-04-18T01:02:56.873Z,6.50
2023-04-18T01:05:25.689Z,6.50
2023-04-18T01:07:58.613Z,6.50
2023-04-18T01:10:29.534Z,6.50
2023-04-18T01:13:14.660Z,6.50
2023-04-18T01:15:43.709Z,6.40
2023-04-18T01:18:13.345Z,6.40
2023-04-18T01:20:46.040Z,6.40
2023-04-18T01:23:14.804Z,6.40
2023-04-18T01:25:45.393Z,6.40
2023-04-18T01:28:14.529Z,6.40
2023-04-18T01:30:43.091Z,6.40
2023-04-18T01:33:11.803Z,6.40
2023-04-18T01:35:40.583Z,6.40
2023-04-18T01:38:09.011Z,6.40
2023-04-18T01:40:38.009Z,6.40
2023-04-18T01:43:07.823Z,6.40
2023-04-18T01:45:36.038Z,6.40
2023-04-18T01:48:04.546Z,6.40
2023-04-18T01:50:32.996Z,6.40
2023-04-18T01:53:02.012Z,6.40
2023-04-18T01:55:30.437Z,6.30
2023-04-18T01:57:59.128Z,6.30
2023-04-18T02:00:29.108Z,6.30
2023-04-18T02:03:00.132Z,6.30
2023-04-18T02:05:28.737Z,6.30
2023-04-18T02:07:57.693Z,6.30
2023-04-18T02:10:26.510Z,6.30
2023-04-18T02:12:54.916Z,6.30
2023-04-18T02:15:25.542Z,6.30
2023-04-18T02:17:55.521Z,6.30
2023-04-18T02:20:26.259Z,6.30
2023-04-18T02:22:54.788Z,6.30
2023-04-18T02:25:23.724Z,6.30
2023-04-18T02:27:52.290Z,6.30
2023-04-18T02:30:21.025Z,6.20
2023-04-18T02:32:53.059Z,6.20
2023-04-18T02:35:23.932Z,6.30
2023-04-18T02:37:52.904Z,6.20
2023-04-18T02:40:21.471Z,6.20
2023-04-18T02:42:49.917Z,6.10
2023-04-18T02:45:18.603Z,6.10
2023-04-18T02:47:55.337Z,6.10
2023-04-18T02:50:27.092Z,6.10
2023-04-18T02:52:55.820Z,6.10
2023-04-18T02:55:24.543Z,6.10
2023-04-18T02:57:53.211Z,6.10
2023-04-18T03:00:21.841Z,6.10
2023-04-18T03:02:50.759Z,6.00
2023-04-18T03:05:19.444Z,6.10
2023-04-18T03:07:49.433Z,6.10
2023-04-18T03:10:18.294Z,6.10
2023-04-18T03:12:47.969Z,6.00
2023-04-18T03:15:16.521Z,6.00
2023-04-18T03:17:45.079Z,6.00
2023-04-18T03:20:13.552Z,6.00
2023-04-18T03:22:42.011Z,6.00
2023-04-18T03:25:12.225Z,6.00
2023-04-18T03:27:40.718Z,5.90
2023-04-18T03:30:10.612Z,6.00
2023-04-18T03:32:39.199Z,6.00
2023-04-18T03:35:07.890Z,6.00
2023-04-18T03:37:36.341Z,6.00
2023-04-18T03:40:05.733Z,6.00
2023-04-18T03:42:36.246Z,6.00
2023-04-18T03:45:05.253Z,6.00
2023-04-18T03:47:33.861Z,5.90
2023-04-18T03:50:02.362Z,6.00
2023-04-18T03:52:30.898Z,5.90
2023-04-18T03:54:59.437Z,5.90
2023-04-18T03:57:27.898Z,5.90
2023-04-18T03:59:57.739Z,5.90
2023-04-18T04:02:26.352Z,5.80
2023-04-18T04:04:54.805Z,5.90
2023-04-18T04:07:23.233Z,5.90
2023-04-18T04:09:51.723Z,5.80
2023-04-18T04:12:20.290Z,5.90
2023-04-18T04:14:48.846Z,5.80
2023-04-18T04:17:19.032Z,5.80
2023-04-18T04:19:47.867Z,5.80
2023-04-18T04:22:16.289Z,5.80
2023-04-18T04:24:46.787Z,5.80
2023-04-18T04:27:15.252Z,5.80
2023-04-18T04:29:43.751Z,5.80
2023-04-18T04:32:12.918Z,5.90
2023-04-18T04:34:43.033Z,5.90
2023-04-18T04:37:13.917Z,5.80
2023-04-18T04:39:42.560Z,5.90
2023-04-18T04:42:12.208Z,5.90
2023-04-18T04:44:41.768Z,5.90
2023-04-18T04:47:10.294Z,5.90
2023-04-18T04:49:38.770Z,5.90
2023-04-18T04:52:08.689Z,5.90
2023-04-18T04:54:37.270Z,5.90
2023-04-18T04:57:05.954Z,5.90
2023-04-18T04:59:35.431Z,5.90
2023-04-18T05:02:03.999Z,5.90
2023-04-18T05:04:32.999Z,5.90
2023-04-18T05:07:01.686Z,5.90
2023-04-18T05:09:31.626Z,5.90
2023-04-18T05:12:00.370Z,5.90
2023-04-18T05:14:28.912Z,5.90
2023-04-18T05:16:57.558Z,6.00
2023-04-18T05:19:26.082Z,6.00
2023-04-18T05:21:54.838Z,6.10
2023-04-18T05:24:23.242Z,6.10
2023-04-18T05:26:53.210Z,6.10
2023-04-18T05:29:21.965Z,6.10
2023-04-18T05:31:50.701Z,6.10
2023-04-18T05:34:19.537Z,6.20
2023-04-18T05:36:48.593Z,6.20
2023-04-18T05:39:17.115Z,6.20
2023-04-18T05:41:45.660Z,6.30
2023-04-18T05:44:16.117Z,6.20
2023-04-18T05:46:44.693Z,6.20
2023-04-18T05:49:13.572Z,6.30
2023-04-18T05:51:42.389Z,6.30
2023-04-18T05:54:10.881Z,6.30
2023-04-18T05:56:40.226Z,6.30
2023-04-18T05:59:08.715Z,6.30
2023-04-18T06:01:39.272Z,6.40
2023-04-18T06:04:08.689Z,6.40
2023-04-18T06:06:37.512Z,6.50
2023-04-18T06:09:06.189Z,6.50
2023-04-18T06:11:35.620Z,6.50
2023-04-18T06:14:04.589Z,6.50
2023-04-18T06:16:33.146Z,6.60
2023-04-18T06:19:03.337Z,6.60
2023-04-18T06:21:32.075Z,6.60
2023-04-18T06:24:01.394Z,6.60
2023-04-18T06:26:32.096Z,6.60
2023-04-18T06:29:00.605Z,6.60
2023-04-18T06:31:29.274Z,6.60
2023-04-18T06:33:57.804Z,6.60
2023-04-18T06:36:28.013Z,6.60
2023-04-18T06:38:56.626Z,6.60
2023-04-18T06:41:25.114Z,6.60
2023-04-18T06:44:03.539Z,6.60
2023-04-18T06:46:33.099Z,6.60
2023-04-18T06:49:01.812Z,6.70
2023-04-18T06:51:31.736Z,6.80
2023-04-18T06:54:00.207Z,6.70
2023-04-18T06:56:29.706Z,6.70
2023-04-18T06:58:58.088Z,6.70
2023-04-18T07:01:26.652Z,6.60
2023-04-18T07:03:55.522Z,6.60
2023-04-18T07:06:24.114Z,6.70
2023-04-18T07:08:55.892Z,6.70
2023-04-18T07:11:24.514Z,6.70
2023-04-18T07:13:52.971Z,6.70
2023-04-18T07:16:21.574Z,6.70
2023-04-18T07:18:51.635Z,6.80
2023-04-18T07:21:20.481Z,6.80
2023-04-18T07:23:49.097Z,6.90
2023-04-18T07:26:19.027Z,6.90
2023-04-18T07:28:47.448Z,6.90
2023-04-18T07:31:16.795Z,7.00
2023-04-18T07:33:45.329Z,7.10
2023-04-18T07:36:13.982Z,7.20
2023-04-18T07:38:42.594Z,7.30
2023-04-18T07:41:11.186Z,7.30
2023-04-18T07:43:40.973Z,7.40
2023-04-18T07:46:10.579Z,7.40
2023-04-18T07:48:38.968Z,7.50
2023-04-18T07:51:07.402Z,7.60
2023-04-18T07:53:35.849Z,7.60
2023-04-18T07:56:04.374Z,7.60
2023-04-18T07:58:32.768Z,7.60
2023-04-18T08:01:02.911Z,7.70
2023-04-18T08:03:33.561Z,7.70
2023-04-18T08:06:02.653Z,7.70
2023-04-18T08:08:31.092Z,7.70
2023-04-18T08:10:59.488Z,7.60
2023-04-18T08:13:27.970Z,7.60
2023-04-18T08:15:59.606Z,7.60
2023-04-18T08:18:29.884Z,7.70
2023-04-18T08:20:58.288Z,7.60
2023-04-18T08:23:26.858Z,7.60
2023-04-18T08:25:55.362Z,7.60
2023-04-18T08:28:23.798Z,7.60
2023-04-18T08:30:52.216Z,7.50
2023-04-18T08:33:20.871Z,7.50
2023-04-18T08:35:51.843Z,7.50
2023-04-18T08:38:20.834Z,7.50
2023-04-18T08:40:49.388Z,7.60
2023-04-18T08:43:17.770Z,7.60
2023-04-18T08:45:47.634Z,7.70
2023-04-18T08:48:17.577Z,7.80
2023-04-18T08:50:48.042Z,7.80
2023-04-18T08:53:18.554Z,7.90
2023-04-18T08:55:50.575Z,7.90
2023-04-18T08:58:23.456Z,7.90
2023-04-18T09:00:53.525Z,7.90
2023-04-18T09:03:40.198Z,7.90
2023-04-18T09:06:11.546Z,7.90
2023-04-18T09:08:43.459Z,7.80
2023-04-18T09:11:26.141Z,7.80
2023-04-18T09:14:00.009Z,7.80
2023-04-18T09:16:29.776Z,7.80
2023-04-18T09:19:12.117Z,7.90
2023-04-18T09:21:42.282Z,7.90
2023-04-18T09:24:21.236Z,8.00
2023-04-18T09:26:51.318Z,8.00
2023-04-18T09:29:22.787Z,8.00
2023-04-18T09:31:57.593Z,8.00
2023-04-18T09:34:27.550Z,8.00
2023-04-18T09:37:08.119Z,8.00
2023-04-18T09:39:38.863Z,8.00
2023-04-18T09:42:08.278Z,8.00
2023-04-18T09:44:36.882Z,7.90
2023-04-18T09:47:06.810Z,7.90
2023-04-18T09:49:35.211Z,8.00
2023-04-18T09:52:07.533Z,8.00
2023-04-18T09:54:40.615Z,8.00
2023-04-18T09:57:13.659Z,8.00
2023-04-18T09:59:50.409Z,8.00
2023-04-18T10:02:23.256Z,8.00
2023-04-18T10:04:52.765Z,7.90
2023-04-18T10:07:22.954Z,7.90
2023-04-18T10:09:53.465Z,7.80
2023-04-18T10:12:22.161Z,7.90
2023-04-18T10:14:51.181Z,7.90
2023-04-18T10:17:21.732Z,7.90
2023-04-18T10:20:06.500Z,7.90
2023-04-18T10:22:35.814Z,7.90
2023-04-18T10:25:06.872Z,7.90
2023-04-18T10:28:00.807Z,8.00
2023-04-18T10:30:52.617Z,8.00
2023-04-18T10:33:42.388Z,8.00
2023-04-18T10:36:20.144Z,8.00
2023-04-18T10:38:50.615Z,8.00
2023-04-18T10:41:25.924Z,7.90
2023-04-18T10:44:27.571Z,7.90
2023-04-18T10:47:32.857Z,7.90
2023-04-18T10:50:06.188Z,7.90
2023-04-18T10:52:36.094Z,7.90
2023-04-18T10:55:17.041Z,7.90
2023-04-18T10:57:47.762Z,7.90
2023-04-18T11:00:18.166Z,8.00
2023-04-18T11:02:51.600Z,8.00
2023-04-18T11:05:22.147Z,7.90
2023-04-18T11:07:50.772Z,7.80
2023-04-18T11:10:21.438Z,7.80
2023-04-18T11:12:51.565Z,7.90
2023-04-18T11:15:22.476Z,7.90
2023-04-18T11:18:02.114Z,7.90
2023-04-18T11:20:31.432Z,7.90
2023-04-18T11:23:01.429Z,7.90
2023-04-18T11:25:31.871Z,7.90
2023-04-18T11:28:03.624Z,7.90
2023-04-18T11:30:39.182Z,7.80
2023-04-18T11:33:09.350Z,7.90
2023-04-18T11:35:39.434Z,8.00
2023-04-18T11:38:09.632Z,8.00
2023-04-18T11:40:38.376Z,8.00
2023-04-18T11:43:09.041Z,8.00
2023-04-18T11:45:37.492Z,8.10
2023-04-18T11:48:06.352Z,8.10
2023-04-18T11:50:38.050Z,8.10
2023-04-18T11:53:06.407Z,8.20
2023-04-18T11:55:34.826Z,8.20
2023-04-18T11:58:04.307Z,8.30
2023-04-18T12:00:35.888Z,8.40
2023-04-18T12:03:06.156Z,8.40
2023-04-18T12:05:36.207Z,8.50
2023-04-18T12:08:09.684Z,8.50
2023-04-18T12:10:38.806Z,8.60
2023-04-18T12:13:09.545Z,8.70
2023-04-18T12:15:41.686Z,8.80
2023-04-18T12:18:12.086Z,9.00
2023-04-18T12:20:45.858Z,9.30
2023-04-18T12:23:29.658Z,9.30
2023-04-18T12:26:02.288Z,9.30
2023-04-18T12:28:31.229Z,9.20
2023-04-18T12:31:01.272Z,9.30
2023-04-18T12:33:29.695Z,9.40
2023-04-18T12:35:58.178Z,9.50
2023-04-18T12:38:27.465Z,9.50
2023-04-18T12:40:56.717Z,9.50
2023-04-18T12:43:25.637Z,9.40
2023-04-18T12:45:54.217Z,9.40
2023-04-18T12:48:23.945Z,9.30
2023-04-18T12:50:52.328Z,9.20
2023-04-18T12:53:21.153Z,9.30
2023-04-18T12:55:49.595Z,9.40
2023-04-18T12:58:20.486Z,9.30
2023-04-18T13:00:49.081Z,9.40
2023-04-18T13:03:17.730Z,9.40
2023-04-18T13:05:47.799Z,9.40
2023-04-18T13:08:17.959Z,9.30
2023-04-18T13:10:47.512Z,9.40
2023-04-18T13:13:16.138Z,9.30
2023-04-18T13:15:44.749Z,9.40
2023-04-18T13:18:13.255Z,9.40
2023-04-18T13:20:41.631Z,9.40
2023-04-18T13:23:11.438Z,9.30
2023-04-18T13:25:40.125Z,9.20
2023-04-18T13:28:08.589Z,9.20
2023-04-18T13:30:37.060Z,9.10
2023-04-18T13:33:05.860Z,9.10
2023-04-18T13:35:34.312Z,9.10
2023-04-18T13:38:02.744Z,9.10
2023-04-18T13:40:33.432Z,9.10
2023-04-18T13:43:01.890Z,9.20
2023-04-18T13:45:30.434Z,9.30
2023-04-18T13:47:59.058Z,9.20
2023-04-18T13:50:27.861Z,9.10
2023-04-18T13:52:56.540Z,9.20
2023-04-18T13:55:25.204Z,9.30
2023-04-18T13:57:54.974Z,9.40
2023-04-18T14:00:23.382Z,9.40
2023-04-18T14:02:52.088Z,9.40
2023-04-18T14:05:20.867Z,9.50
2023-04-18T14:07:49.582Z,9.50
2023-04-18T14:10:18.013Z,9.40
2023-04-18T14:12:46.848Z,9.40
2023-04-18T14:15:16.818Z,9.20
2023-04-18T14:17:45.918Z,9.10
2023-04-18T14:20:19.143Z,9.00
2023-04-18T14:22:47.695Z,9.00
2023-04-18T14:25:16.979Z,8.90
2023-04-18T14:27:48.833Z,8.90
2023-04-18T14:30:18.617Z,8.90
2023-04-18T14:32:47.111Z,8.90
2023-04-18T14:35:15.549Z,8.90
2023-04-18T14:37:43.972Z,9.00
2023-04-18T14:40:13.396Z,9.00
2023-04-18T14:42:42.213Z,9.00
2023-04-18T14:45:12.237Z,9.00
2023-04-18T14:47:42.291Z,8.90
2023-04-18T14:50:12.878Z,8.90
2023-04-18T14:52:42.126Z,8.90
2023-04-18T14:55:11.202Z,9.00
2023-04-18T14:57:39.908Z,9.00
2023-04-18T15:00:11.371Z,9.00
2023-04-18T15:02:41.321Z,8.90
2023-04-18T15:05:10.958Z,9.00
2023-04-18T15:07:40.674Z,8.90
2023-04-18T15:10:12.483Z,8.90
2023-04-18T15:12:41.514Z,8.90
2023-04-18T15:15:10.691Z,8.90
2023-04-18T15:17:39.399Z,9.00
2023-04-18T15:20:10.552Z,8.90
2023-04-18T15:22:38.949Z,8.90
2023-04-18T15:25:08.329Z,8.90
2023-04-18T15:27:36.792Z,8.80
2023-04-18T15:30:07.775Z,8.80
2023-04-18T15:32:36.908Z,8.80
2023-04-18T15:35:06.558Z,8.80
2023-04-18T15:37:36.518Z,8.80
2023-04-18T15:40:06.957Z,8.80
2023-04-18T15:42:35.509Z,8.80
2023-04-18T15:45:06.529Z,8.90
2023-04-18T15:47:35.300Z,8.90
2023-04-18T15:50:03.894Z,9.00
2023-04-18T15:52:32.330Z,9.10
2023-04-18T15:55:02.167Z,9.10
2023-04-18T15:57:30.508Z,9.20
2023-04-18T15:59:59.597Z,9.20
2023-04-18T16:02:28.330Z,9.20
2023-04-18T16:04:56.834Z,9.20
2023-04-18T16:07:25.501Z,9.20
2023-04-18T16:09:53.938Z,9.20
2023-04-18T16:12:23.681Z,9.20
2023-04-18T16:14:52.079Z,9.30
2023-04-18T16:17:20.519Z,9.30
2023-04-18T16:19:48.937Z,9.30
2023-04-18T16:22:17.287Z,9.30
2023-04-18T16:24:45.807Z,9.30
2023-04-18T16:27:14.355Z,9.30
2023-04-18T16:29:44.957Z,9.30
2023-04-18T16:32:13.445Z,9.30
2023-04-18T16:34:41.874Z,9.30
2023-04-18T16:37:10.332Z,9.30
2023-04-18T16:39:38.825Z,9.20
2023-04-18T16:42:07.301Z,9.20
2023-04-18T16:44:35.717Z,9.30
2023-04-18T16:47:08.126Z,9.20
2023-04-18T16:49:37.415Z,9.10
2023-04-18T16:52:06.361Z,9.10
2023-04-18T16:54:34.908Z,9.10
2023-04-18T16:57:03.428Z,9.10
2023-04-18T16:59:31.862Z,9.10
2023-04-18T17:02:00.521Z,9.10
2023-04-18T17:04:30.382Z,9.00
2023-04-18T17:06:58.910Z,9.00
2023-04-18T17:09:27.483Z,9.00
2023-04-18T17:11:55.905Z,9.00
2023-04-18T17:14:24.326Z,8.90
2023-04-18T17:16:53.729Z,8.90
2023-04-18T17:19:22.374Z,8.90
2023-04-18T17:21:52.477Z,8.90
2023-04-18T17:24:22.499Z,8.90
2023-04-18T17:26:51.224Z,8.90
2023-04-18T17:29:20.997Z,8.90
2023-04-18T17:31:49.450Z,8.90
2023-04-18T17:34:18.228Z,8.90
2023-04-18T17:36:46.663Z,8.80
2023-04-18T17:39:16.880Z,8.80
2023-04-18T17:41:46.328Z,8.80
2023-04-18T17:44:14.744Z,8.80
2023-04-18T17:46:43.356Z,8.80
2023-04-18T17:49:12.380Z,8.80
2023-04-18T17:51:41.010Z,8.80
2023-04-18T17:54:10.669Z,8.80
2023-04-18T17:56:40.916Z,8.80
2023-04-18T17:59:09.800Z,8.80
2023-04-18T18:01:39.141Z,8.70
2023-04-18T18:04:08.377Z,8.70
2023-04-18T18:06:36.972Z,8.70
2023-04-18T18:09:05.691Z,8.70
2023-04-18T18:11:34.196Z,8.70
2023-04-18T18:14:04.042Z,8.60
2023-04-18T18:16:32.361Z,8.60
2023-04-18T18:19:00.718Z,8.60
2023-04-18T18:21:29.318Z,8.60
2023-04-18T18:23:57.906Z,8.60
2023-04-18T18:26:26.981Z,8.60
2023-04-18T18:28:55.446Z,8.60
2023-04-18T18:31:25.665Z,8.60
2023-04-18T18:33:54.263Z,8.50
2023-04-18T18:36:22.931Z,8.50
2023-04-18T18:38:51.633Z,8.50
2023-04-18T18:41:22.542Z,8.50
2023-04-18T18:43:51.292Z,8.50
2023-04-18T18:46:20.680Z,8.50
2023-04-18T18:48:51.827Z,8.50
2023-04-18T18:51:20.414Z,8.50
2023-04-18T18:53:48.788Z,8.50
2023-04-18T18:56:17.543Z,8.50
2023-04-18T18:58:45.918Z,8.50
2023-04-18T19:01:14.777Z,8.50
2023-04-18T19:03:43.325Z,8.40
2023-04-18T19:06:13.188Z,8.50
2023-04-18T19:08:41.565Z,8.50
2023-04-18T19:11:10.444Z,8.50
2023-04-18T19:13:39.391Z,8.50
2023-04-18T19:16:07.885Z,8.40
2023-04-18T19:18:36.742Z,8.40
2023-04-18T19:21:05.658Z,8.40
2023-04-18T19:23:35.961Z,8.40
2023-04-18T19:26:06.483Z,8.40
2023-04-18T19:28:35.776Z,8.30
2023-04-18T19:31:04.305Z,8.30
2023-04-18T19:33:33.132Z,8.30
2023-04-18T19:36:02.160Z,8.40
2023-04-18T19:38:31.235Z,8.30
2023-04-18T19:41:01.027Z,8.30
2023-04-18T19:43:29.464Z,8.30
2023-04-18T19:45:58.070Z,8.20
2023-04-18T19:48:26.718Z,8.20
2023-04-18T19:50:56.745Z,8.20
2023-04-18T19:53:25.847Z,8.20
2023-04-18T19:55:55.299Z,8.20
2023-04-18T19:58:39.600Z,8.20
2023-04-18T20:01:09.965Z,8.20
2023-04-18T20:03:39.368Z,8.20
2023-04-18T20:06:08.624Z,8.30
2023-04-18T20:08:39.418Z,8.30
2023-04-18T20:11:09.022Z,8.30
2023-04-18T20:13:38.903Z,8.30
2023-04-18T20:16:07.550Z,8.30
2023-04-18T20:18:37.759Z,8.30
2023-04-18T20:21:08.292Z,8.30
2023-04-18T20:23:37.371Z,8.30
2023-04-18T20:26:06.233Z,8.30
2023-04-18T20:28:34.734Z,8.30
2023-04-18T20:31:04.576Z,8.30
2023-04-18T20:33:33.204Z,8.30
2023-04-18T20:36:01.782Z,8.30
2023-04-18T20:38:30.265Z,8.30
2023-04-18T20:41:00.618Z,8.30
2023-04-18T20:43:30.641Z,8.30
2023-04-18T20:45:59.091Z,8.30
2023-04-18T20:48:29.124Z,8.30
2023-04-18T20:50:57.553Z,8.30
2023-04-18T20:53:27.068Z,8.30
2023-04-18T20:55:55.702Z,8.30
2023-04-18T20:58:24.170Z,8.30
2023-04-18T21:00:53.338Z,8.30
2023-04-18T21:03:21.999Z,8.30
2023-04-18T21:05:52.303Z,8.30
2023-04-18T21:08:20.819Z,8.30
2023-04-18T21:10:49.327Z,8.30
2023-04-18T21:13:18.297Z,8.30
2023-04-18T21:15:46.817Z,8.30
2023-04-18T21:18:15.302Z,8.30
2023-04-18T21:20:43.928Z,8.30
2023-04-18T21:23:13.711Z,8.20
2023-04-18T21:25:42.202Z,8.20
2023-04-18T21:28:10.753Z,8.20
2023-04-18T21:30:39.217Z,8.20
2023-04-18T21:33:07.666Z,8.10
2023-04-18T21:38:30.706Z,8.10
2023-04-18T21:40:59.127Z,8.10
2023-04-18T21:43:27.549Z,8.10
2023-04-18T21:45:56.130Z,8.00
2023-04-18T21:48:24.750Z,8.00
2023-04-18T21:50:55.845Z,8.00
2023-04-18T21:53:24.497Z,8.00
2023-04-18T21:55:54.919Z,8.00
2023-04-18T21:58:23.410Z,8.00
2023-04-18T22:00:51.890Z,8.00
2023-04-18T22:03:20.662Z,8.00
2023-04-18T22:05:50.177Z,8.00
2023-04-18T22:08:18.684Z,8.00
2023-04-18T22:10:49.715Z,8.00
2023-04-18T22:13:19.687Z,8.00
2023-04-18T22:15:48.276Z,8.00
2023-04-18T22:18:16.937Z,8.00
2023-04-18T22:20:46.824Z,8.00
2023-04-18T22:23:15.536Z,8.00
2023-04-18T22:25:44.561Z,8.00
2023-04-18T22:28:13.366Z,8.00
2023-04-18T22:30:43.176Z,8.00
2023-04-18T22:33:11.451Z,8.10
2023-04-18T22:35:39.869Z,8.20
2023-04-18T22:38:08.344Z,8.30
2023-04-18T22:40:37.008Z,8.30
2023-04-18T22:43:06.031Z,8.40
2023-04-18T22:45:35.037Z,8.40
2023-04-18T22:48:05.290Z,8.40
2023-04-18T22:50:33.842Z,8.40
2023-04-18T22:53:02.247Z,8.40
2023-04-18T22:55:30.687Z,8.40
2023-04-18T22:57:59.085Z,8.50
2023-04-18T23:00:27.876Z,8.40
2023-04-18T23:02:56.713Z,8.50
2023-04-18T23:05:27.100Z,8.40
2023-04-18T23:07:56.250Z,8.50
2023-04-18T23:10:25.818Z,8.50
2023-04-18T23:12:54.238Z,8.50
2023-04-18T23:15:23.011Z,8.40
2023-04-18T23:17:53.330Z,8.50
2023-04-18T23:20:22.055Z,8.50
2023-04-18T23:22:53.117Z,8.50
2023-04-18T23:25:21.578Z,8.50
2023-04-18T23:27:50.008Z,8.50
2023-04-18T23:30:18.905Z,8.50
2023-04-18T23:32:47.664Z,8.50
2023-04-18T23:35:16.103Z,8.40
2023-04-18T23:37:44.624Z,8.50
2023-04-18T23:40:14.494Z,8.50
2023-04-18T23:42:43.797Z,8.40
2023-04-18T23:45:12.869Z,8.40
2023-04-18T23:47:41.377Z,8.40
2023-04-18T23:50:10.648Z,8.40
2023-04-18T23:52:39.149Z,8.40
2023-04-18T23:55:08.409Z,8.40
2023-04-18T23:57:38.717Z,8.40
